createdAt,value
2023-01-17T00:02:22.064Z,97877.72
2023-01-17T00:05:07.486Z,97891.16
2023-01-17T00:07:52.159Z,97886.84
2023-01-17T00:10:23.903Z,97900.28
2023-01-17T00:12:59.106Z,97896.59
2023-01-17T00:15:26.995Z,97899.38
2023-01-17T00:17:53.787Z,97898.84
2023-01-17T00:20:44.684Z,97891.34
2023-01-17T00:23:35.068Z,97891.34
2023-01-17T00:26:04.789Z,97906.13
2023-01-17T00:28:36.420Z,97909.34
2023-01-17T00:31:04.240Z,97904.78
2023-01-17T00:33:31.087Z,97907.19
2023-01-17T00:35:58.723Z,97917.09
2023-01-17T00:38:27.444Z,97919.25
2023-01-17T00:40:54.178Z,97919.25
2023-01-17T00:43:41.855Z,97928.91
2023-01-17T00:46:27.135Z,97934.81
2023-01-17T00:49:12.186Z,97935.34
2023-01-17T00:51:57.553Z,97936.41
2023-01-17T00:54:42.769Z,97953.34
2023-01-17T00:57:27.478Z,97945.25
2023-01-17T01:00:12.080Z,97959.47
2023-01-17T01:02:57.839Z,97961.03
2023-01-17T01:05:42.985Z,97957.56
2023-01-17T01:08:39.693Z,97972.88
2023-01-17T01:11:26.926Z,97974.47
2023-01-17T01:14:12.157Z,97975.00
2023-01-17T01:16:57.523Z,97986.84
2023-01-17T01:19:42.731Z,97980.94
2023-01-17T01:22:28.107Z,98003.25
2023-01-17T01:25:12.808Z,97997.63
2023-01-17T01:27:57.564Z,98004.84
2023-01-17T01:30:42.455Z,98007.53
2023-01-17T01:33:20.056Z,98007.28
2023-01-17T01:35:55.211Z,98015.28
2023-01-17T01:38:24.164Z,98019.56
2023-01-17T01:40:53.963Z,98026.03
2023-01-17T01:43:47.790Z,98040.00
2023-01-17T01:46:40.507Z,98042.16
2023-01-17T01:49:21.932Z,98042.16
2023-01-17T01:51:53.925Z,98051.31
2023-01-17T01:54:26.847Z,98058.28
2023-01-17T01:56:55.012Z,98052.91
2023-01-17T01:59:23.335Z,98059.63
2023-01-17T02:01:53.018Z,98063.66
2023-01-17T02:04:20.793Z,98073.84
2023-01-17T02:06:56.153Z,98078.69
2023-01-17T02:09:23.675Z,98070.38
2023-01-17T02:11:50.240Z,98089.44
2023-01-17T02:14:18.325Z,98096.97
2023-01-17T02:16:47.613Z,98090.53
2023-01-17T02:19:52.645Z,98092.16
2023-01-17T02:23:03.183Z,98114.97
2023-01-17T02:26:07.507Z,98122.22
2023-01-17T02:29:34.304Z,98125.69
2023-01-17T02:32:03.898Z,98123.56
2023-01-17T02:34:47.113Z,98129.47
2023-01-17T02:37:23.397Z,98136.44
2023-01-17T02:40:01.851Z,98143.19
2023-01-17T02:42:37.322Z,98141.00
2023-01-17T02:45:04.639Z,98149.09
2023-01-17T02:47:32.015Z,98146.94
2023-01-17T02:50:05.948Z,98146.94
2023-01-17T02:52:57.296Z,98154.44
2023-01-17T02:55:36.599Z,98161.41
2023-01-17T02:58:22.977Z,98151.22
2023-01-17T03:01:07.965Z,98158.72
2023-01-17T03:03:43.481Z,98154.97
2023-01-17T03:06:15.836Z,98166.28
2023-01-17T03:08:44.926Z,98165.72
2023-01-17T03:11:13.085Z,98163.31
2023-01-17T03:13:39.572Z,98164.66
2023-01-17T03:16:12.758Z,98160.59
2023-01-17T03:18:39.402Z,98163.59
2023-01-17T03:21:06.066Z,98165.72
2023-01-17T03:23:32.435Z,98164.13
2023-01-17T03:25:58.785Z,98166.28
2023-01-17T03:28:25.258Z,98169.22
2023-01-17T03:30:51.635Z,98171.09
2023-01-17T03:33:18.427Z,98182.91
2023-01-17T03:35:46.177Z,98187.72
2023-01-17T03:38:12.682Z,98184.50
2023-01-17T03:40:39.047Z,98186.66
2023-01-17T03:43:05.431Z,98188.00
2023-01-17T03:45:31.911Z,98194.72
2023-01-17T03:47:59.289Z,98187.19
2023-01-17T03:50:27.288Z,98196.31
2023-01-17T03:52:53.671Z,98198.44
2023-01-17T03:55:20.002Z,98206.75
2023-01-17T03:57:46.344Z,98207.56
2023-01-17T04:00:13.419Z,98206.50
2023-01-17T04:02:39.832Z,98212.13
2023-01-17T04:05:06.623Z,98217.78
2023-01-17T04:07:32.953Z,98224.72
2023-01-17T04:09:59.330Z,98222.59
2023-01-17T04:12:25.647Z,98222.63
2023-01-17T04:14:52.101Z,98223.13
2023-01-17T04:17:20.008Z,98217.75
2023-01-17T04:19:47.509Z,98228.25
2023-01-17T04:22:13.924Z,98226.06
2023-01-17T04:24:40.294Z,98216.97
2023-01-17T04:27:06.865Z,98218.28
2023-01-17T04:29:33.289Z,98222.59
2023-01-17T04:31:59.670Z,98222.84
2023-01-17T04:34:26.493Z,98224.50
2023-01-17T04:36:52.935Z,98222.88
2023-01-17T04:39:19.522Z,98231.72
2023-01-17T04:41:45.847Z,98219.66
2023-01-17T04:44:12.210Z,98219.38
2023-01-17T04:46:38.638Z,98226.91
2023-01-17T04:49:05.015Z,98225.56
2023-01-17T04:51:31.367Z,98231.22
2023-01-17T04:53:57.712Z,98233.34
2023-01-17T04:56:24.169Z,98227.97
2023-01-17T04:58:50.534Z,98231.75
2023-01-17T05:01:17.297Z,98236.03
2023-01-17T05:03:43.648Z,98237.09
2023-01-17T05:06:10.441Z,98243.00
2023-01-17T05:08:37.148Z,98245.69
2023-01-17T05:11:03.620Z,98251.03
2023-01-17T05:13:30.049Z,98249.41
2023-01-17T05:15:58.313Z,98246.19
2023-01-17T05:18:25.379Z,98253.19
2023-01-17T05:20:51.719Z,98253.72
2023-01-17T05:23:18.222Z,98244.59
2023-01-17T05:25:44.823Z,98250.50
2023-01-17T05:28:12.931Z,98251.56
2023-01-17T05:30:39.671Z,98256.13
2023-01-17T05:33:06.123Z,98257.75
2023-01-17T05:35:32.730Z,98255.34
2023-01-17T05:37:59.238Z,98260.72
2023-01-17T05:40:27.759Z,98263.94
2023-01-17T05:42:56.417Z,98259.09
2023-01-17T05:45:25.138Z,98261.78
2023-01-17T05:47:53.053Z,98265.56
2023-01-17T05:50:22.857Z,98264.47
2023-01-17T05:52:57.738Z,98262.31
2023-01-17T05:55:27.157Z,98269.84
2023-01-17T05:57:54.199Z,98265.03
2023-01-17T06:00:21.721Z,98265.56
2023-01-17T06:02:48.827Z,98273.59
2023-01-17T06:05:15.827Z,98273.56
2023-01-17T06:07:46.080Z,98267.38
2023-01-17T06:10:14.562Z,98270.13
2023-01-17T06:12:42.283Z,98271.50
2023-01-17T06:15:09.685Z,98268.81
2023-01-17T06:17:36.737Z,98275.25
2023-01-17T06:20:05.308Z,98280.59
2023-01-17T06:22:32.141Z,98277.34
2023-01-17T06:24:58.479Z,98284.59
2023-01-17T06:27:25.146Z,98280.81
2023-01-17T06:29:51.537Z,98292.91
2023-01-17T06:32:17.882Z,98284.31
2023-01-17T06:34:44.268Z,98287.53
2023-01-17T06:37:10.705Z,98289.13
2023-01-17T06:39:37.161Z,98297.72
2023-01-17T06:42:03.593Z,98294.50
2023-01-17T06:44:30.160Z,98304.13
2023-01-17T06:46:56.568Z,98308.41
2023-01-17T06:49:23.038Z,98303.06
2023-01-17T06:51:49.634Z,98306.53
2023-01-17T06:54:16.095Z,98307.34
2023-01-17T06:56:42.997Z,98305.78
2023-01-17T06:59:09.330Z,98310.00
2023-01-17T07:01:35.964Z,98312.66
2023-01-17T07:04:04.750Z,98309.22
2023-01-17T07:06:31.107Z,98309.50
2023-01-17T07:08:57.459Z,98314.88
2023-01-17T07:11:23.941Z,98309.00
2023-01-17T07:13:50.389Z,98320.28
2023-01-17T07:16:16.855Z,98316.84
2023-01-17T07:18:43.259Z,98319.25
2023-01-17T07:21:14.271Z,98318.44
2023-01-17T07:23:41.281Z,98330.50
2023-01-17T07:26:07.993Z,98324.00
2023-01-17T07:28:34.391Z,98326.19
2023-01-17T07:31:06.221Z,98334.22
2023-01-17T07:33:32.635Z,98334.16
2023-01-17T07:36:03.361Z,98330.44
2023-01-17T07:38:29.695Z,98333.13
2023-01-17T07:40:59.937Z,98326.16
2023-01-17T07:43:26.587Z,98327.19
2023-01-17T07:45:53.011Z,98316.72
2023-01-17T07:48:21.543Z,98318.31
2023-01-17T07:50:53.856Z,98319.16
2023-01-17T07:53:21.591Z,98318.88
2023-01-17T07:55:48.024Z,98319.38
2023-01-17T07:58:15.332Z,98328.22
2023-01-17T08:00:44.228Z,98317.47
2023-01-17T08:03:16.141Z,98322.84
2023-01-17T08:05:44.312Z,98325.47
2023-01-17T08:08:10.801Z,98328.69
2023-01-17T08:10:37.218Z,98338.34
2023-01-17T08:13:03.789Z,98334.28
2023-01-17T08:15:30.241Z,98341.47
2023-01-17T08:17:58.666Z,98334.03
2023-01-17T08:20:27.798Z,98344.75
2023-01-17T08:22:55.873Z,98328.59
2023-01-17T08:25:24.216Z,98325.97
2023-01-17T08:27:51.415Z,98327.06
2023-01-17T08:30:18.698Z,98330.25
2023-01-17T08:32:45.077Z,98323.28
2023-01-17T08:35:11.444Z,98332.97
2023-01-17T08:37:39.052Z,98330.75
2023-01-17T08:40:07.188Z,98338.13
2023-01-17T08:42:39.171Z,98331.72
2023-01-17T08:45:07.676Z,98331.22
2023-01-17T08:47:34.516Z,98328.25
2023-01-17T08:50:01.100Z,98333.72
2023-01-17T08:52:28.425Z,98333.50
2023-01-17T08:54:54.919Z,98337.81
2023-01-17T08:57:22.225Z,98334.91
2023-01-17T08:59:48.636Z,98338.38
2023-01-17T09:02:16.907Z,98335.72
2023-01-17T09:04:47.410Z,98346.44
2023-01-17T09:07:15.202Z,98348.03
2023-01-17T09:09:41.652Z,98343.16
2023-01-17T09:12:08.308Z,98338.16
2023-01-17T09:14:35.564Z,98337.72
2023-01-17T09:17:01.950Z,98344.41
2023-01-17T09:19:28.424Z,98341.22
2023-01-17T09:21:54.851Z,98339.56
2023-01-17T09:24:21.307Z,98351.47
2023-01-17T09:26:47.694Z,98343.50
2023-01-17T09:29:17.946Z,98342.19
2023-01-17T09:31:48.059Z,98337.38
2023-01-17T09:34:14.591Z,98328.56
2023-01-17T09:36:42.164Z,98335.56
2023-01-17T09:39:10.867Z,98338.28
2023-01-17T09:41:50.590Z,98340.13
2023-01-17T09:44:33.554Z,98351.69
2023-01-17T09:47:07.447Z,98349.50
2023-01-17T09:49:41.840Z,98347.63
2023-01-17T09:52:22.885Z,98355.41
2023-01-17T09:54:50.885Z,98347.28
2023-01-17T09:57:38.149Z,98358.31
2023-01-17T10:00:23.263Z,98353.72
2023-01-17T10:02:57.684Z,98355.88
2023-01-17T10:05:47.645Z,98361.75
2023-01-17T10:08:26.138Z,98367.06
2023-01-17T10:11:17.350Z,98362.22
2023-01-17T10:14:18.699Z,98360.66
2023-01-17T10:16:54.995Z,98363.16
2023-01-17T10:19:40.652Z,98356.94
2023-01-17T10:22:23.781Z,98363.38
2023-01-17T10:25:15.673Z,98356.09
2023-01-17T10:27:48.313Z,98359.00
2023-01-17T10:30:33.446Z,98353.75
2023-01-17T10:33:03.921Z,98349.94
2023-01-17T10:35:34.510Z,98355.13
2023-01-17T10:38:05.904Z,98343.75
2023-01-17T10:40:44.721Z,98343.53
2023-01-17T10:43:20.461Z,98350.78
2023-01-17T10:45:53.465Z,98357.72
2023-01-17T10:48:34.144Z,98351.22
2023-01-17T10:51:22.086Z,98343.31
2023-01-17T10:54:12.428Z,98344.44
2023-01-17T10:56:41.271Z,98350.63
2023-01-17T10:59:28.593Z,98342.41
2023-01-17T11:01:55.137Z,98350.41
2023-01-17T11:04:30.817Z,98347.91
2023-01-17T11:07:19.068Z,98339.38
2023-01-17T11:09:49.593Z,98336.19
2023-01-17T11:12:43.924Z,98334.63
2023-01-17T11:15:10.181Z,98335.34
2023-01-17T11:17:41.286Z,98335.72
2023-01-17T11:20:20.087Z,98335.28
2023-01-17T11:23:03.206Z,98329.25
2023-01-17T11:25:33.864Z,98323.22
2023-01-17T11:28:04.474Z,98321.94
2023-01-17T11:30:31.089Z,98313.63
2023-01-17T11:32:59.908Z,98312.97
2023-01-17T11:35:31.888Z,98318.06
2023-01-17T11:38:20.402Z,98314.78
2023-01-17T11:40:49.132Z,98308.88
2023-01-17T11:43:23.109Z,98309.16
2023-01-17T11:46:03.426Z,98308.38
2023-01-17T11:48:38.405Z,98308.31
2023-01-17T11:51:18.020Z,98302.16
2023-01-17T11:53:49.162Z,98305.22
2023-01-17T11:56:30.902Z,98303.84
2023-01-17T11:59:24.888Z,98305.72
2023-01-17T12:02:31.724Z,98302.56
2023-01-17T12:05:23.673Z,98294.69
2023-01-17T12:08:15.303Z,98298.06
2023-01-17T12:10:57.510Z,98294.47
2023-01-17T12:13:54.390Z,98294.97
2023-01-17T12:16:34.036Z,98290.97
2023-01-17T12:19:18.797Z,98293.25
2023-01-17T12:21:58.841Z,98295.31
2023-01-17T12:24:45.225Z,98288.25
2023-01-17T12:27:29.309Z,98290.91
2023-01-17T12:30:05.208Z,98287.78
2023-01-17T12:32:53.459Z,98284.28
2023-01-17T12:35:32.148Z,98284.41
2023-01-17T12:38:05.807Z,98281.56
2023-01-17T12:40:46.691Z,98277.19
2023-01-17T12:43:29.174Z,98260.91
2023-01-17T12:45:56.117Z,98275.78
2023-01-17T12:48:30.193Z,98266.44
2023-01-17T12:51:17.582Z,98264.09
2023-01-17T12:53:54.057Z,98263.69
2023-01-17T12:56:36.183Z,98262.75
2023-01-17T12:59:41.213Z,98263.44
2023-01-17T13:02:21.382Z,98262.50
2023-01-17T13:04:58.860Z,98256.41
2023-01-17T13:07:42.175Z,98253.63
2023-01-17T13:10:33.121Z,98252.41
2023-01-17T13:13:04.953Z,98251.09
2023-01-17T13:15:37.850Z,98258.50
2023-01-17T13:18:15.833Z,98254.75
2023-01-17T13:20:42.212Z,98259.72
2023-01-17T13:23:35.380Z,98256.41
2023-01-17T13:26:05.991Z,98260.28
2023-01-17T13:28:54.964Z,98258.00
2023-01-17T13:31:35.293Z,98266.06
2023-01-17T13:34:20.115Z,98266.78
2023-01-17T13:37:07.860Z,98265.16
2023-01-17T13:40:02.144Z,98272.22
2023-01-17T13:42:46.289Z,98269.34
2023-01-17T13:45:22.162Z,98268.53
2023-01-17T13:47:48.646Z,98275.13
2023-01-17T13:50:38.058Z,98276.84
2023-01-17T13:53:29.173Z,98277.91
2023-01-17T13:56:24.278Z,98277.38
2023-01-17T13:58:51.984Z,98276.94
2023-01-17T14:01:24.172Z,98285.53
2023-01-17T14:03:50.863Z,98282.50
2023-01-17T14:06:35.400Z,98273.38
2023-01-17T14:09:10.617Z,98280.06
2023-01-17T14:11:58.718Z,98284.84
2023-01-17T14:15:00.505Z,98277.31
2023-01-17T14:17:46.037Z,98269.81
2023-01-17T14:20:12.659Z,98270.00
2023-01-17T14:22:47.491Z,98277.44
2023-01-17T14:25:19.966Z,98276.91
2023-01-17T14:27:53.230Z,98283.50
2023-01-17T14:30:29.261Z,98279.75
2023-01-17T14:32:58.732Z,98286.69
2023-01-17T14:35:31.859Z,98280.31
2023-01-17T14:38:01.658Z,98279.16
2023-01-17T14:40:30.536Z,98275.94
2023-01-17T14:43:18.601Z,98268.31
2023-01-17T14:45:45.184Z,98275.53
2023-01-17T14:48:23.237Z,98270.25
2023-01-17T14:50:52.334Z,98268.09
2023-01-17T14:53:27.844Z,98276.19
2023-01-17T14:55:57.989Z,98268.31
2023-01-17T14:58:33.576Z,98273.91
2023-01-17T15:01:18.691Z,98273.09
2023-01-17T15:03:46.768Z,98274.44
2023-01-17T15:06:37.151Z,98275.28
2023-01-17T15:09:12.069Z,98272.06
2023-01-17T15:11:39.401Z,98266.53
2023-01-17T15:14:06.699Z,98269.09
2023-01-17T15:16:36.485Z,98272.16
2023-01-17T15:19:10.871Z,98274.38
2023-01-17T15:21:42.317Z,98272.31
2023-01-17T15:24:34.415Z,98277.25
2023-01-17T15:27:01.691Z,98277.31
2023-01-17T15:29:33.646Z,98278.75
2023-01-17T15:32:03.118Z,98280.19
2023-01-17T15:34:31.462Z,98285.13
2023-01-17T15:37:03.795Z,98279.72
2023-01-17T15:39:33.701Z,98280.31
2023-01-17T15:42:21.554Z,98275.47
2023-01-17T15:44:53.591Z,98273.94
2023-01-17T15:47:30.962Z,98278.03
2023-01-17T15:49:58.146Z,98277.25
2023-01-17T15:52:24.540Z,98280.75
2023-01-17T15:54:58.838Z,98277.84
2023-01-17T15:57:32.673Z,98280.06
2023-01-17T16:00:07.674Z,98281.69
2023-01-17T16:02:43.280Z,98280.09
2023-01-17T16:05:22.602Z,98297.34
2023-01-17T16:07:49.947Z,98290.34
2023-01-17T16:10:28.771Z,98291.75
2023-01-17T16:12:56.180Z,98294.97
2023-01-17T16:15:26.394Z,98297.41
2023-01-17T16:17:57.390Z,98301.44
2023-01-17T16:20:29.443Z,98303.31
2023-01-17T16:22:55.946Z,98306.53
2023-01-17T16:25:24.279Z,98308.69
2023-01-17T16:27:52.177Z,98311.63
2023-01-17T16:30:21.592Z,98311.06
2023-01-17T16:32:48.949Z,98319.94
2023-01-17T16:35:27.594Z,98318.03
2023-01-17T16:37:57.055Z,98319.09
2023-01-17T16:40:25.868Z,98322.84
2023-01-17T16:42:52.258Z,98325.50
2023-01-17T16:45:18.905Z,98327.34
2023-01-17T16:47:46.741Z,98337.00
2023-01-17T16:50:15.510Z,98340.22
2023-01-17T16:52:42.341Z,98333.81
2023-01-17T16:55:12.301Z,98337.56
2023-01-17T16:57:38.924Z,98342.16
2023-01-17T17:00:06.673Z,98345.06
2023-01-17T17:02:33.242Z,98334.00
2023-01-17T17:04:59.952Z,98338.78
2023-01-17T17:07:26.286Z,98336.88
2023-01-17T17:09:52.750Z,98330.94
2023-01-17T17:12:19.089Z,98337.94
2023-01-17T17:14:45.474Z,98344.66
2023-01-17T17:17:11.823Z,98354.53
2023-01-17T17:19:38.163Z,98355.88
2023-01-17T17:22:06.459Z,98352.50
2023-01-17T17:24:33.217Z,98357.03
2023-01-17T17:27:00.849Z,98356.19
2023-01-17T17:29:27.171Z,98364.50
2023-01-17T17:31:53.906Z,98360.78
2023-01-17T17:34:20.753Z,98364.69
2023-01-17T17:36:47.092Z,98368.09
2023-01-17T17:39:15.543Z,98367.56
2023-01-17T17:41:43.693Z,98377.09
2023-01-17T17:44:10.208Z,98368.22
2023-01-17T17:46:37.029Z,98373.56
2023-01-17T17:49:04.223Z,98381.78
2023-01-17T17:51:32.164Z,98378.63
2023-01-17T17:54:01.187Z,98379.44
2023-01-17T17:56:29.006Z,98385.09
2023-01-17T17:58:56.490Z,98387.31
2023-01-17T18:01:24.077Z,98389.69
2023-01-17T18:03:52.316Z,98384.91
2023-01-17T18:06:19.292Z,98391.34
2023-01-17T18:08:45.925Z,98398.03
2023-01-17T18:11:17.908Z,98408.25
2023-01-17T18:13:47.765Z,98398.34
2023-01-17T18:16:16.134Z,98405.84
2023-01-17T18:18:48.894Z,98404.16
2023-01-17T18:21:27.285Z,98410.81
2023-01-17T18:23:58.747Z,98414.16
2023-01-17T18:26:31.093Z,98417.19
2023-01-17T18:28:59.328Z,98416.31
2023-01-17T18:31:27.369Z,98421.13
2023-01-17T18:33:55.441Z,98425.50
2023-01-17T18:36:23.504Z,98423.69
2023-01-17T18:38:51.993Z,98430.03
2023-01-17T18:41:29.445Z,98430.59
2023-01-17T18:43:56.513Z,98428.81
2023-01-17T18:46:23.469Z,98432.34
2023-01-17T18:48:49.955Z,98430.41
2023-01-17T18:51:18.617Z,98437.00
2023-01-17T18:53:46.656Z,98435.94
2023-01-17T18:56:16.272Z,98437.00
2023-01-17T18:58:45.479Z,98427.53
2023-01-17T19:01:18.536Z,98428.03
2023-01-17T19:03:47.402Z,98432.03
2023-01-17T19:06:18.349Z,98440.78
2023-01-17T19:08:45.203Z,98434.88
2023-01-17T19:11:12.285Z,98435.84
2023-01-17T19:13:39.405Z,98437.47
2023-01-17T19:16:19.739Z,98439.84
2023-01-17T19:18:47.121Z,98447.03
2023-01-17T19:21:16.456Z,98445.34
2023-01-17T19:23:45.667Z,98454.00
2023-01-17T19:26:14.073Z,98455.38
2023-01-17T19:28:42.271Z,98458.25
2023-01-17T19:31:11.203Z,98449.09
2023-01-17T19:33:38.915Z,98450.44
2023-01-17T19:36:08.772Z,98458.72
2023-01-17T19:38:37.088Z,98467.00
2023-01-17T19:41:15.135Z,98461.81
2023-01-17T19:43:42.858Z,98462.88
2023-01-17T19:46:11.500Z,98463.44
2023-01-17T19:48:39.412Z,98468.47
2023-01-17T19:51:14.164Z,98468.13
2023-01-17T19:53:41.583Z,98471.69
2023-01-17T19:56:14.574Z,98476.47
2023-01-17T19:58:41.996Z,98486.13
2023-01-17T20:01:09.460Z,98490.81
2023-01-17T20:03:37.680Z,98496.16
2023-01-17T20:06:12.585Z,98500.31
2023-01-17T20:08:39.055Z,98503.31
2023-01-17T20:11:07.923Z,98509.63
2023-01-17T20:13:34.620Z,98510.28
2023-01-17T20:16:06.073Z,98509.84
2023-01-17T20:18:33.566Z,98507.09
2023-01-17T20:21:08.859Z,98505.00
2023-01-17T20:23:42.108Z,98519.66
2023-01-17T20:26:13.020Z,98512.34
2023-01-17T20:28:42.198Z,98518.03
2023-01-17T20:31:12.575Z,98518.34
2023-01-17T20:33:43.266Z,98525.97
2023-01-17T20:36:12.683Z,98528.72
2023-01-17T20:38:45.541Z,98525.13
2023-01-17T20:41:22.414Z,98527.81
2023-01-17T20:43:51.254Z,98529.53
2023-01-17T20:46:19.577Z,98530.00
2023-01-17T20:48:54.346Z,98528.38
2023-01-17T20:51:22.595Z,98532.00
2023-01-17T20:53:57.627Z,98538.44
2023-01-17T20:56:25.097Z,98540.84
2023-01-17T20:58:52.623Z,98529.91
2023-01-17T21:01:20.738Z,98532.59
2023-01-17T21:03:50.922Z,98535.19
2023-01-17T21:06:19.136Z,98538.47
2023-01-17T21:08:47.320Z,98535.91
2023-01-17T21:11:16.947Z,98536.97
2023-01-17T21:13:44.007Z,98548.25
2023-01-17T21:16:14.105Z,98547.19
2023-01-17T21:18:41.438Z,98551.00
2023-01-17T21:21:12.065Z,98552.13
2023-01-17T21:23:40.543Z,98544.72
2023-01-17T21:26:10.820Z,98550.91
2023-01-17T21:28:38.850Z,98559.78
2023-01-17T21:31:22.780Z,98557.09
2023-01-17T21:33:53.491Z,98555.94
2023-01-17T21:36:28.430Z,98559.69
2023-01-17T21:38:57.404Z,98565.03
2023-01-17T21:41:29.482Z,98562.44
2023-01-17T21:43:58.110Z,98564.41
2023-01-17T21:46:25.362Z,98569.19
2023-01-17T21:48:51.762Z,98566.28
2023-01-17T21:51:19.628Z,98571.28
2023-01-17T21:53:46.101Z,98572.81
2023-01-17T21:56:32.210Z,98572.97
2023-01-17T21:58:59.653Z,98577.13
2023-01-17T22:01:32.352Z,98585.25
2023-01-17T22:04:02.675Z,98582.81
2023-01-17T22:06:31.745Z,98580.03
2023-01-17T22:08:59.197Z,98579.00
2023-01-17T22:11:27.384Z,98586.88
2023-01-17T22:13:53.813Z,98583.50
2023-01-17T22:16:23.463Z,98583.88
2023-01-17T22:18:50.723Z,98585.75
2023-01-17T22:21:26.515Z,98589.00
2023-01-17T22:23:55.737Z,98585.97
2023-01-17T22:26:24.784Z,98585.50
2023-01-17T22:28:51.287Z,98592.69
2023-01-17T22:31:17.813Z,98591.78
2023-01-17T22:33:46.158Z,98601.19
2023-01-17T22:36:14.172Z,98599.88
2023-01-17T22:38:44.189Z,98604.56
2023-01-17T22:41:13.387Z,98600.38
2023-01-17T22:43:42.374Z,98595.50
2023-01-17T22:46:11.339Z,98601.53
2023-01-17T22:48:39.174Z,98599.78
2023-01-17T22:51:11.075Z,98592.81
2023-01-17T22:53:45.127Z,98597.00
2023-01-17T22:56:14.197Z,98600.94
2023-01-17T22:58:44.537Z,98598.97
2023-01-17T23:01:14.947Z,98598.28
2023-01-17T23:03:41.890Z,98608.03
2023-01-17T23:06:14.255Z,98594.69
2023-01-17T23:08:45.387Z,98601.03
2023-01-17T23:11:43.535Z,98596.41
2023-01-17T23:14:17.524Z,98595.03
2023-01-17T23:17:22.562Z,98597.44
2023-01-17T23:19:54.631Z,98601.19
2023-01-17T23:22:23.532Z,98599.22
2023-01-17T23:24:52.621Z,98610.56
2023-01-17T23:27:46.551Z,98600.00
2023-01-17T23:30:19.119Z,98599.88
2023-01-17T23:32:51.221Z,98598.50
2023-01-17T23:35:20.000Z,98598.59
2023-01-17T23:38:05.405Z,98595.00
2023-01-17T23:40:33.225Z,98594.88
2023-01-17T23:43:18.255Z,98595.34
2023-01-17T23:45:44.624Z,98591.50
2023-01-17T23:48:11.083Z,98582.03
2023-01-17T23:50:45.918Z,98588.03
2023-01-17T23:53:23.798Z,98590.59
2023-01-17T23:55:53.236Z,98585.00
2023-01-17T23:58:21.403Z,98591.16
